sensor_id;sensor_type;location;lat;lon;timestamp;pressure;altitude;pressure_sealevel;temperature;humidity
58473;BME280;44775;51.564;5.460;2023-06-19T00:01:19;100561.00;;;21.49;68.84
58473;BME280;44775;51.564;5.460;2023-06-19T00:03:44;100560.94;;;21.43;67.88
58473;BME280;44775;51.564;5.460;2023-06-19T00:06:09;100563.91;;;21.42;69.89
58473;BME280;44775;51.564;5.460;2023-06-19T00:08:37;100564.50;;;21.32;70.37
58473;BME280;44775;51.564;5.460;2023-06-19T00:11:02;100569.78;;;21.22;71.20
58473;BME280;44775;51.564;5.460;2023-06-19T00:13:28;100564.44;;;21.10;71.81
58473;BME280;44775;51.564;5.460;2023-06-19T00:15:53;100573.88;;;21.08;72.31
58473;BME280;44775;51.564;5.460;2023-06-19T00:18:18;100569.91;;;20.98;73.19
58473;BME280;44775;51.564;5.460;2023-06-19T00:20:45;100580.09;;;20.91;73.34
58473;BME280;44775;51.564;5.460;2023-06-19T00:23:11;100581.78;;;20.92;73.43
58473;BME280;44775;51.564;5.460;2023-06-19T00:25:39;100587.69;;;20.89;74.13
58473;BME280;44775;51.564;5.460;2023-06-19T00:28:05;100597.28;;;20.80;74.33
58473;BME280;44775;51.564;5.460;2023-06-19T00:30:36;100593.91;;;20.73;74.88
58473;BME280;44775;51.564;5.460;2023-06-19T00:33:01;100591.53;;;20.65;75.38
58473;BME280;44775;51.564;5.460;2023-06-19T00:35:28;100599.00;;;20.58;76.09
58473;BME280;44775;51.564;5.460;2023-06-19T00:37:53;100599.03;;;20.46;76.84
58473;BME280;44775;51.564;5.460;2023-06-19T00:40:28;100612.81;;;20.44;77.24
58473;BME280;44775;51.564;5.460;2023-06-19T00:42:54;100597.75;;;20.37;77.27
58473;BME280;44775;51.564;5.460;2023-06-19T00:45:19;100607.66;;;20.31;78.00
58473;BME280;44775;51.564;5.460;2023-06-19T00:47:45;100607.91;;;20.18;79.01
58473;BME280;44775;51.564;5.460;2023-06-19T00:50:11;100617.03;;;20.12;79.48
58473;BME280;44775;51.564;5.460;2023-06-19T00:52:37;100618.78;;;20.06;79.97
58473;BME280;44775;51.564;5.460;2023-06-19T00:55:03;100611.38;;;20.01;80.85
58473;BME280;44775;51.564;5.460;2023-06-19T00:57:30;100616.78;;;20.01;80.99
58473;BME280;44775;51.564;5.460;2023-06-19T00:59:57;100610.06;;;19.92;81.78
58473;BME280;44775;51.564;5.460;2023-06-19T01:02:23;100615.50;;;19.92;81.74
58473;BME280;44775;51.564;5.460;2023-06-19T01:04:49;100621.75;;;19.81;82.78
58473;BME280;44775;51.564;5.460;2023-06-19T01:07:17;100615.47;;;19.80;82.99
58473;BME280;44775;51.564;5.460;2023-06-19T01:10:03;100626.56;;;19.79;82.75
58473;BME280;44775;51.564;5.460;2023-06-19T01:12:37;100629.75;;;19.64;84.81
58473;BME280;44775;51.564;5.460;2023-06-19T01:15:04;100620.03;;;19.56;85.17
58473;BME280;44775;51.564;5.460;2023-06-19T01:17:31;100627.69;;;19.59;85.63
58473;BME280;44775;51.564;5.460;2023-06-19T01:19:57;100635.47;;;19.56;86.38
58473;BME280;44775;51.564;5.460;2023-06-19T01:24:52;100640.53;;;19.52;87.21
58473;BME280;44775;51.564;5.460;2023-06-19T01:27:17;100634.63;;;19.55;87.75
58473;BME280;44775;51.564;5.460;2023-06-19T01:29:43;100631.69;;;19.45;88.25
58473;BME280;44775;51.564;5.460;2023-06-19T01:32:13;100630.75;;;19.51;89.17
58473;BME280;44775;51.564;5.460;2023-06-19T01:34:41;100645.22;;;19.45;89.86
58473;BME280;44775;51.564;5.460;2023-06-19T01:37:07;100635.81;;;19.48;89.98
58473;BME280;44775;51.564;5.460;2023-06-19T01:39:35;100633.06;;;19.36;90.58
58473;BME280;44775;51.564;5.460;2023-06-19T01:42:02;100638.84;;;19.40;90.90
58473;BME280;44775;51.564;5.460;2023-06-19T01:44:28;100641.44;;;19.34;91.36
58473;BME280;44775;51.564;5.460;2023-06-19T01:46:53;100645.44;;;19.32;91.65
58473;BME280;44775;51.564;5.460;2023-06-19T01:49:18;100647.97;;;19.27;92.49
58473;BME280;44775;51.564;5.460;2023-06-19T01:51:44;100640.53;;;19.10;93.29
58473;BME280;44775;51.564;5.460;2023-06-19T01:54:09;100650.44;;;19.17;93.46
58473;BME280;44775;51.564;5.460;2023-06-19T01:56:35;100647.06;;;19.03;94.72
58473;BME280;44775;51.564;5.460;2023-06-19T01:59:01;100654.72;;;18.94;96.04
58473;BME280;44775;51.564;5.460;2023-06-19T02:01:26;100653.19;;;18.98;96.00
58473;BME280;44775;51.564;5.460;2023-06-19T02:03:52;100656.59;;;18.94;97.00
58473;BME280;44775;51.564;5.460;2023-06-19T02:06:17;100667.16;;;18.83;98.20
58473;BME280;44775;51.564;5.460;2023-06-19T02:08:42;100666.44;;;18.70;98.95
58473;BME280;44775;51.564;5.460;2023-06-19T02:11:08;100649.22;;;18.64;99.85
58473;BME280;44775;51.564;5.460;2023-06-19T02:13:33;100670.50;;;18.60;100.00
58473;BME280;44775;51.564;5.460;2023-06-19T02:15:58;100668.53;;;18.68;100.00
58473;BME280;44775;51.564;5.460;2023-06-19T02:18:24;100675.47;;;18.63;100.00
58473;BME280;44775;51.564;5.460;2023-06-19T02:20:49;100673.59;;;18.64;100.00
58473;BME280;44775;51.564;5.460;2023-06-19T02:23:15;100662.31;;;18.67;100.00
58473;BME280;44775;51.564;5.460;2023-06-19T02:25:40;100670.38;;;18.74;100.00
58473;BME280;44775;51.564;5.460;2023-06-19T02:28:05;100672.88;;;18.69;100.00
58473;BME280;44775;51.564;5.460;2023-06-19T02:30:30;100683.91;;;18.74;100.00
58473;BME280;44775;51.564;5.460;2023-06-19T02:32:56;100674.16;;;18.66;100.00
58473;BME280;44775;51.564;5.460;2023-06-19T02:35:21;100677.88;;;18.53;100.00
58473;BME280;44775;51.564;5.460;2023-06-19T02:37:47;100672.53;;;18.47;100.00
58473;BME280;44775;51.564;5.460;2023-06-19T02:40:12;100669.91;;;18.40;100.00
58473;BME280;44775;51.564;5.460;2023-06-19T02:42:38;100667.84;;;18.35;100.00
58473;BME280;44775;51.564;5.460;2023-06-19T02:45:03;100676.19;;;18.34;100.00
58473;BME280;44775;51.564;5.460;2023-06-19T02:47:32;100657.22;;;18.15;100.00
58473;BME280;44775;51.564;5.460;2023-06-19T02:50:02;100665.34;;;18.15;100.00
58473;BME280;44775;51.564;5.460;2023-06-19T02:52:28;100674.94;;;18.11;100.00
58473;BME280;44775;51.564;5.460;2023-06-19T02:54:53;100673.13;;;18.05;100.00
58473;BME280;44775;51.564;5.460;2023-06-19T02:57:19;100668.97;;;18.09;100.00
58473;BME280;44775;51.564;5.460;2023-06-19T02:59:44;100684.41;;;18.02;100.00
58473;BME280;44775;51.564;5.460;2023-06-19T03:02:11;100682.59;;;17.96;100.00
58473;BME280;44775;51.564;5.460;2023-06-19T03:04:36;100678.84;;;17.97;100.00
58473;BME280;44775;51.564;5.460;2023-06-19T03:07:02;100687.19;;;17.96;100.00
58473;BME280;44775;51.564;5.460;2023-06-19T03:09:28;100685.13;;;17.91;100.00
58473;BME280;44775;51.564;5.460;2023-06-19T03:11:53;100684.53;;;17.89;100.00
58473;BME280;44775;51.564;5.460;2023-06-19T03:14:18;100693.84;;;17.93;100.00
58473;BME280;44775;51.564;5.460;2023-06-19T03:16:43;100696.38;;;17.88;100.00
58473;BME280;44775;51.564;5.460;2023-06-19T03:19:09;100697.88;;;17.84;100.00
58473;BME280;44775;51.564;5.460;2023-06-19T03:21:34;100696.00;;;17.84;100.00
58473;BME280;44775;51.564;5.460;2023-06-19T03:24:00;100701.44;;;17.78;100.00
58473;BME280;44775;51.564;5.460;2023-06-19T03:26:26;100694.59;;;17.75;100.00
58473;BME280;44775;51.564;5.460;2023-06-19T03:28:51;100696.44;;;17.81;100.00
58473;BME280;44775;51.564;5.460;2023-06-19T03:31:16;100693.75;;;17.75;100.00
58473;BME280;44775;51.564;5.460;2023-06-19T03:33:42;100703.63;;;17.62;100.00
58473;BME280;44775;51.564;5.460;2023-06-19T03:36:07;100710.03;;;17.61;100.00
58473;BME280;44775;51.564;5.460;2023-06-19T03:38:32;100709.47;;;17.59;100.00
58473;BME280;44775;51.564;5.460;2023-06-19T03:40:58;100715.06;;;17.58;100.00
58473;BME280;44775;51.564;5.460;2023-06-19T03:43:23;100698.09;;;17.44;100.00
58473;BME280;44775;51.564;5.460;2023-06-19T03:45:49;100726.53;;;17.53;100.00
58473;BME280;44775;51.564;5.460;2023-06-19T03:48:15;100730.31;;;17.45;100.00
58473;BME280;44775;51.564;5.460;2023-06-19T03:50:41;100735.50;;;17.47;100.00
58473;BME280;44775;51.564;5.460;2023-06-19T03:53:06;100731.75;;;17.48;100.00
58473;BME280;44775;51.564;5.460;2023-06-19T03:55:31;100733.19;;;17.51;100.00
58473;BME280;44775;51.564;5.460;2023-06-19T03:57:57;100738.75;;;17.62;100.00
58473;BME280;44775;51.564;5.460;2023-06-19T04:00:22;100744.53;;;17.66;100.00
58473;BME280;44775;51.564;5.460;2023-06-19T04:02:47;100744.06;;;17.76;100.00
58473;BME280;44775;51.564;5.460;2023-06-19T04:05:13;100747.78;;;17.75;100.00
58473;BME280;44775;51.564;5.460;2023-06-19T04:07:39;100752.78;;;17.78;100.00
58473;BME280;44775;51.564;5.460;2023-06-19T04:10:05;100752.56;;;17.86;100.00
58473;BME280;44775;51.564;5.460;2023-06-19T04:12:30;100753.97;;;17.88;100.00
58473;BME280;44775;51.564;5.460;2023-06-19T04:14:55;100761.25;;;17.88;100.00
58473;BME280;44775;51.564;5.460;2023-06-19T04:17:21;100757.69;;;17.94;100.00
58473;BME280;44775;51.564;5.460;2023-06-19T04:19:46;100769.66;;;18.05;100.00
58473;BME280;44775;51.564;5.460;2023-06-19T04:22:11;100775.28;;;18.03;100.00
58473;BME280;44775;51.564;5.460;2023-06-19T04:24:37;100777.28;;;18.14;100.00
58473;BME280;44775;51.564;5.460;2023-06-19T04:27:02;100769.44;;;18.06;100.00
58473;BME280;44775;51.564;5.460;2023-06-19T04:29:27;100771.53;;;18.04;100.00
58473;BME280;44775;51.564;5.460;2023-06-19T04:31:59;100783.13;;;18.11;100.00
58473;BME280;44775;51.564;5.460;2023-06-19T04:34:25;100784.13;;;18.17;100.00
58473;BME280;44775;51.564;5.460;2023-06-19T04:36:51;100783.34;;;18.10;100.00
58473;BME280;44775;51.564;5.460;2023-06-19T04:39:17;100789.63;;;18.04;100.00
58473;BME280;44775;51.564;5.460;2023-06-19T04:41:43;100787.75;;;18.04;100.00
58473;BME280;44775;51.564;5.460;2023-06-19T04:44:09;100801.47;;;18.09;100.00
58473;BME280;44775;51.564;5.460;2023-06-19T04:46:37;100801.03;;;18.12;100.00
58473;BME280;44775;51.564;5.460;2023-06-19T04:49:03;100795.38;;;18.14;100.00
58473;BME280;44775;51.564;5.460;2023-06-19T04:51:29;100794.75;;;18.12;100.00
58473;BME280;44775;51.564;5.460;2023-06-19T04:53:54;100807.22;;;18.20;100.00
58473;BME280;44775;51.564;5.460;2023-06-19T04:56:20;100800.13;;;18.18;100.00
58473;BME280;44775;51.564;5.460;2023-06-19T04:58:45;100796.09;;;18.28;100.00
58473;BME280;44775;51.564;5.460;2023-06-19T05:01:15;100795.22;;;18.34;100.00
58473;BME280;44775;51.564;5.460;2023-06-19T05:03:41;100787.72;;;18.36;100.00
58473;BME280;44775;51.564;5.460;2023-06-19T05:06:07;100799.31;;;18.43;100.00
58473;BME280;44775;51.564;5.460;2023-06-19T05:08:32;100802.78;;;18.50;100.00
58473;BME280;44775;51.564;5.460;2023-06-19T05:10:57;100797.38;;;18.50;100.00
58473;BME280;44775;51.564;5.460;2023-06-19T05:13:26;100805.25;;;18.52;100.00
58473;BME280;44775;51.564;5.460;2023-06-19T05:15:51;100805.72;;;18.49;100.00
58473;BME280;44775;51.564;5.460;2023-06-19T05:18:16;100806.94;;;18.53;100.00
58473;BME280;44775;51.564;5.460;2023-06-19T05:20:42;100797.75;;;18.54;100.00
58473;BME280;44775;51.564;5.460;2023-06-19T05:23:07;100812.69;;;18.63;100.00
58473;BME280;44775;51.564;5.460;2023-06-19T05:25:33;100820.94;;;18.68;100.00
58473;BME280;44775;51.564;5.460;2023-06-19T05:27:58;100818.03;;;18.70;100.00
58473;BME280;44775;51.564;5.460;2023-06-19T05:30:23;100822.50;;;18.82;100.00
58473;BME280;44775;51.564;5.460;2023-06-19T05:32:49;100824.56;;;18.87;100.00
58473;BME280;44775;51.564;5.460;2023-06-19T05:35:14;100832.72;;;18.80;100.00
58473;BME280;44775;51.564;5.460;2023-06-19T05:37:39;100823.47;;;18.88;100.00
58473;BME280;44775;51.564;5.460;2023-06-19T05:40:08;100823.63;;;18.93;100.00
58473;BME280;44775;51.564;5.460;2023-06-19T05:42:33;100822.22;;;19.09;100.00
58473;BME280;44775;51.564;5.460;2023-06-19T05:44:59;100824.84;;;19.16;100.00
58473;BME280;44775;51.564;5.460;2023-06-19T05:47:24;100824.09;;;19.27;100.00
58473;BME280;44775;51.564;5.460;2023-06-19T05:49:51;100839.59;;;19.20;100.00
58473;BME280;44775;51.564;5.460;2023-06-19T05:52:16;100829.22;;;19.17;100.00
58473;BME280;44775;51.564;5.460;2023-06-19T05:54:42;100836.22;;;19.24;100.00
58473;BME280;44775;51.564;5.460;2023-06-19T05:57:07;100840.94;;;19.29;100.00
58473;BME280;44775;51.564;5.460;2023-06-19T05:59:32;100829.72;;;19.44;100.00
58473;BME280;44775;51.564;5.460;2023-06-19T06:01:58;100829.34;;;19.58;100.00
58473;BME280;44775;51.564;5.460;2023-06-19T06:04:23;100831.09;;;19.71;100.00
58473;BME280;44775;51.564;5.460;2023-06-19T06:06:48;100843.31;;;20.04;100.00
58473;BME280;44775;51.564;5.460;2023-06-19T06:09:14;100837.81;;;20.11;100.00
58473;BME280;44775;51.564;5.460;2023-06-19T06:11:40;100844.91;;;20.12;100.00
58473;BME280;44775;51.564;5.460;2023-06-19T06:14:05;100856.94;;;20.16;100.00
58473;BME280;44775;51.564;5.460;2023-06-19T06:16:30;100859.31;;;20.24;100.00
58473;BME280;44775;51.564;5.460;2023-06-19T06:18:56;100865.53;;;20.55;98.85
58473;BME280;44775;51.564;5.460;2023-06-19T06:21:21;100868.72;;;20.51;97.14
58473;BME280;44775;51.564;5.460;2023-06-19T06:23:48;100863.06;;;20.53;97.10
58473;BME280;44775;51.564;5.460;2023-06-19T06:26:13;100880.19;;;20.77;94.56
58473;BME280;44775;51.564;5.460;2023-06-19T06:28:39;100881.63;;;20.91;91.76
58473;BME280;44775;51.564;5.460;2023-06-19T06:31:05;100884.09;;;21.05;91.14
58473;BME280;44775;51.564;5.460;2023-06-19T06:33:30;100887.53;;;21.23;88.96
58473;BME280;44775;51.564;5.460;2023-06-19T06:35:57;100886.78;;;21.28;87.02
58473;BME280;44775;51.564;5.460;2023-06-19T06:38:22;100894.84;;;21.47;85.45
58473;BME280;44775;51.564;5.460;2023-06-19T06:40:48;100896.09;;;21.56;84.07
58473;BME280;44775;51.564;5.460;2023-06-19T06:43:13;100885.78;;;21.69;83.54
58473;BME280;44775;51.564;5.460;2023-06-19T06:45:38;100905.28;;;22.07;81.82
58473;BME280;44775;51.564;5.460;2023-06-19T06:48:04;100921.25;;;22.15;81.36
58473;BME280;44775;51.564;5.460;2023-06-19T06:50:31;100914.63;;;22.39;80.40
58473;BME280;44775;51.564;5.460;2023-06-19T06:52:57;100918.47;;;22.27;78.50
58473;BME280;44775;51.564;5.460;2023-06-19T06:55:22;100905.53;;;22.34;77.28
58473;BME280;44775;51.564;5.460;2023-06-19T06:57:48;100929.06;;;22.57;75.15
58473;BME280;44775;51.564;5.460;2023-06-19T07:00:13;100925.78;;;22.55;75.67
58473;BME280;44775;51.564;5.460;2023-06-19T07:02:38;100922.56;;;22.58;74.87
58473;BME280;44775;51.564;5.460;2023-06-19T07:05:08;100911.41;;;22.59;75.08
58473;BME280;44775;51.564;5.460;2023-06-19T07:07:33;100927.66;;;22.71;74.05
58473;BME280;44775;51.564;5.460;2023-06-19T07:09:59;100937.94;;;22.98;73.20
58473;BME280;44775;51.564;5.460;2023-06-19T07:12:24;100933.13;;;23.05;71.37
58473;BME280;44775;51.564;5.460;2023-06-19T07:14:53;100939.69;;;23.04;71.58
58473;BME280;44775;51.564;5.460;2023-06-19T07:17:18;100948.28;;;22.96;72.11
58473;BME280;44775;51.564;5.460;2023-06-19T07:19:44;100959.56;;;23.04;72.03
58473;BME280;44775;51.564;5.460;2023-06-19T07:22:09;100953.94;;;22.77;72.84
58473;BME280;44775;51.564;5.460;2023-06-19T07:24:34;100946.69;;;22.83;71.72
58473;BME280;44775;51.564;5.460;2023-06-19T07:26:59;100964.28;;;23.26;69.95
58473;BME280;44775;51.564;5.460;2023-06-19T07:29:25;100963.25;;;23.32;68.92
58473;BME280;44775;51.564;5.460;2023-06-19T07:31:51;100968.16;;;23.52;67.45
58473;BME280;44775;51.564;5.460;2023-06-19T07:34:17;100965.84;;;23.61;66.73
58473;BME280;44775;51.564;5.460;2023-06-19T07:36:42;100971.13;;;23.67;66.42
58473;BME280;44775;51.564;5.460;2023-06-19T07:39:07;100960.75;;;23.47;66.79
58473;BME280;44775;51.564;5.460;2023-06-19T07:41:33;100972.75;;;23.85;66.44
58473;BME280;44775;51.564;5.460;2023-06-19T07:43:58;100976.09;;;23.70;66.36
58473;BME280;44775;51.564;5.460;2023-06-19T07:46:24;100978.13;;;24.02;64.71
58473;BME280;44775;51.564;5.460;2023-06-19T07:48:49;100981.88;;;24.18;63.93
58473;BME280;44775;51.564;5.460;2023-06-19T07:51:14;100975.63;;;24.71;62.34
58473;BME280;44775;51.564;5.460;2023-06-19T07:53:39;100971.28;;;24.76;59.96
58473;BME280;44775;51.564;5.460;2023-06-19T07:56:05;100967.22;;;24.83;60.10
58473;BME280;44775;51.564;5.460;2023-06-19T07:58:30;100971.72;;;24.94;58.53
58473;BME280;44775;51.564;5.460;2023-06-19T08:00:55;100979.63;;;24.91;58.72
58473;BME280;44775;51.564;5.460;2023-06-19T08:03:20;100979.47;;;24.76;58.76
58473;BME280;44775;51.564;5.460;2023-06-19T08:05:46;100975.00;;;24.96;57.53
58473;BME280;44775;51.564;5.460;2023-06-19T08:08:12;100973.16;;;25.39;56.25
58473;BME280;44775;51.564;5.460;2023-06-19T08:10:38;100978.44;;;25.61;55.07
58473;BME280;44775;51.564;5.460;2023-06-19T08:13:03;100982.16;;;25.40;55.21
58473;BME280;44775;51.564;5.460;2023-06-19T08:15:28;100986.13;;;25.59;54.80
58473;BME280;44775;51.564;5.460;2023-06-19T08:17:53;100983.22;;;25.81;53.15
58473;BME280;44775;51.564;5.460;2023-06-19T08:20:19;100980.53;;;25.86;53.54
58473;BME280;44775;51.564;5.460;2023-06-19T08:22:45;100986.16;;;26.37;52.44
58473;BME280;44775;51.564;5.460;2023-06-19T08:25:10;100987.06;;;26.79;50.87
58473;BME280;44775;51.564;5.460;2023-06-19T08:27:35;100983.50;;;27.19;48.89
58473;BME280;44775;51.564;5.460;2023-06-19T08:30:01;100986.00;;;27.16;49.10
58473;BME280;44775;51.564;5.460;2023-06-19T08:32:26;100989.28;;;27.18;49.54
58473;BME280;44775;51.564;5.460;2023-06-19T08:34:52;100984.88;;;27.01;48.95
58473;BME280;44775;51.564;5.460;2023-06-19T08:37:17;100987.34;;;27.03;48.31
58473;BME280;44775;51.564;5.460;2023-06-19T08:39:45;100988.72;;;26.80;47.49
58473;BME280;44775;51.564;5.460;2023-06-19T08:42:10;100997.44;;;26.46;48.88
58473;BME280;44775;51.564;5.460;2023-06-19T08:44:36;101010.16;;;26.00;50.16
58473;BME280;44775;51.564;5.460;2023-06-19T08:47:02;101016.84;;;25.77;51.36
58473;BME280;44775;51.564;5.460;2023-06-19T08:49:33;101020.50;;;25.87;52.15
58473;BME280;44775;51.564;5.460;2023-06-19T08:51:59;101015.75;;;25.78;51.88
58473;BME280;44775;51.564;5.460;2023-06-19T08:54:25;101014.84;;;26.14;51.84
58473;BME280;44775;51.564;5.460;2023-06-19T08:56:51;101014.38;;;26.33;50.69
58473;BME280;44775;51.564;5.460;2023-06-19T08:59:19;101031.59;;;26.23;50.39
58473;BME280;44775;51.564;5.460;2023-06-19T09:01:49;101027.19;;;26.22;50.57
58473;BME280;44775;51.564;5.460;2023-06-19T09:04:18;101043.41;;;26.39;50.05
58473;BME280;44775;51.564;5.460;2023-06-19T09:09:17;101035.56;;;25.90;50.56
58473;BME280;44775;51.564;5.460;2023-06-19T09:11:42;101038.88;;;26.70;48.78
58473;BME280;44775;51.564;5.460;2023-06-19T09:14:10;101041.94;;;27.25;48.29
58473;BME280;44775;51.564;5.460;2023-06-19T09:16:40;101037.56;;;27.14;47.74
58473;BME280;44775;51.564;5.460;2023-06-19T09:19:06;101044.66;;;26.89;46.89
58473;BME280;44775;51.564;5.460;2023-06-19T09:21:36;101035.34;;;26.85;47.13
58473;BME280;44775;51.564;5.460;2023-06-19T09:24:04;101045.22;;;27.01;46.14
58473;BME280;44775;51.564;5.460;2023-06-19T09:26:29;101044.66;;;27.40;46.17
58473;BME280;44775;51.564;5.460;2023-06-19T09:28:55;101059.97;;;27.92;45.34
58473;BME280;44775;51.564;5.460;2023-06-19T09:31:20;101062.56;;;28.33;44.55
58473;BME280;44775;51.564;5.460;2023-06-19T09:33:45;101054.31;;;28.33;44.17
58473;BME280;44775;51.564;5.460;2023-06-19T09:36:11;101052.97;;;28.80;42.42
58473;BME280;44775;51.564;5.460;2023-06-19T09:38:37;101057.19;;;29.07;42.38
58473;BME280;44775;51.564;5.460;2023-06-19T09:41:05;101060.63;;;28.83;41.60
58473;BME280;44775;51.564;5.460;2023-06-19T09:43:37;101071.50;;;28.99;41.33
58473;BME280;44775;51.564;5.460;2023-06-19T09:46:04;101068.13;;;29.17;40.76
58473;BME280;44775;51.564;5.460;2023-06-19T09:48:31;101060.75;;;29.71;40.19
58473;BME280;44775;51.564;5.460;2023-06-19T09:53:26;101068.50;;;29.34;39.03
58473;BME280;44775;51.564;5.460;2023-06-19T09:55:52;101072.72;;;29.27;39.69
58473;BME280;44775;51.564;5.460;2023-06-19T09:58:20;101073.06;;;29.15;40.52
58473;BME280;44775;51.564;5.460;2023-06-19T10:00:46;101072.78;;;28.77;40.82
58473;BME280;44775;51.564;5.460;2023-06-19T10:03:13;101079.06;;;28.28;42.34
58473;BME280;44775;51.564;5.460;2023-06-19T10:05:38;101078.56;;;28.16;41.67
58473;BME280;44775;51.564;5.460;2023-06-19T10:08:04;101076.72;;;28.61;40.57
58473;BME280;44775;51.564;5.460;2023-06-19T10:10:30;101076.84;;;28.40;41.30
58473;BME280;44775;51.564;5.460;2023-06-19T10:12:58;101085.41;;;28.78;41.45
58473;BME280;44775;51.564;5.460;2023-06-19T10:15:28;101076.47;;;29.02;41.42
58473;BME280;44775;51.564;5.460;2023-06-19T10:18:04;101073.38;;;29.77;40.26
58473;BME280;44775;51.564;5.460;2023-06-19T10:20:37;101079.03;;;30.33;38.91
58473;BME280;44775;51.564;5.460;2023-06-19T10:23:17;101078.00;;;29.81;39.41
58473;BME280;44775;51.564;5.460;2023-06-19T10:25:47;101080.94;;;30.14;38.26
58473;BME280;44775;51.564;5.460;2023-06-19T10:28:18;101073.63;;;29.75;38.53
58473;BME280;44775;51.564;5.460;2023-06-19T10:30:44;101068.00;;;29.61;38.27
58473;BME280;44775;51.564;5.460;2023-06-19T10:33:09;101069.41;;;29.83;38.46
58473;BME280;44775;51.564;5.460;2023-06-19T10:35:38;101081.69;;;30.20;36.75
58473;BME280;44775;51.564;5.460;2023-06-19T10:38:05;101078.91;;;30.44;36.68
58473;BME280;44775;51.564;5.460;2023-06-19T10:40:30;101080.56;;;30.45;36.51
58473;BME280;44775;51.564;5.460;2023-06-19T10:42:55;101082.22;;;29.98;37.21
58473;BME280;44775;51.564;5.460;2023-06-19T10:45:21;101087.50;;;28.97;39.24
58473;BME280;44775;51.564;5.460;2023-06-19T10:47:54;101084.09;;;28.70;39.61
58473;BME280;44775;51.564;5.460;2023-06-19T10:50:19;101079.47;;;28.61;39.97
58473;BME280;44775;51.564;5.460;2023-06-19T10:52:47;101080.25;;;28.12;41.57
58473;BME280;44775;51.564;5.460;2023-06-19T10:55:14;101068.97;;;28.73;40.57
58473;BME280;44775;51.564;5.460;2023-06-19T10:57:44;101067.78;;;29.24;39.27
58473;BME280;44775;51.564;5.460;2023-06-19T11:00:10;101072.41;;;29.28;37.70
58473;BME280;44775;51.564;5.460;2023-06-19T11:02:40;101071.28;;;29.00;38.02
58473;BME280;44775;51.564;5.460;2023-06-19T11:05:11;101071.78;;;29.02;38.13
58473;BME280;44775;51.564;5.460;2023-06-19T11:07:37;101063.38;;;29.52;37.25
58473;BME280;44775;51.564;5.460;2023-06-19T11:10:03;101065.34;;;29.46;37.05
58473;BME280;44775;51.564;5.460;2023-06-19T11:12:31;101067.66;;;29.05;37.04
58473;BME280;44775;51.564;5.460;2023-06-19T11:14:56;101056.44;;;28.91;36.58
58473;BME280;44775;51.564;5.460;2023-06-19T11:17:22;101060.72;;;29.41;36.56
58473;BME280;44775;51.564;5.460;2023-06-19T11:19:49;101063.94;;;29.54;36.76
58473;BME280;44775;51.564;5.460;2023-06-19T11:22:14;101055.34;;;29.60;36.02
58473;BME280;44775;51.564;5.460;2023-06-19T11:24:47;101060.19;;;30.22;36.26
58473;BME280;44775;51.564;5.460;2023-06-19T11:27:17;101067.34;;;30.61;34.76
58473;BME280;44775;51.564;5.460;2023-06-19T11:29:43;101065.50;;;30.56;34.86
58473;BME280;44775;51.564;5.460;2023-06-19T11:32:12;101075.25;;;30.67;33.73
58473;BME280;44775;51.564;5.460;2023-06-19T11:34:38;101076.50;;;31.78;33.63
58473;BME280;44775;51.564;5.460;2023-06-19T11:37:17;101057.41;;;31.16;33.57
58473;BME280;44775;51.564;5.460;2023-06-19T11:39:44;101061.50;;;31.05;34.39
58473;BME280;44775;51.564;5.460;2023-06-19T11:42:10;101056.44;;;31.26;33.62
58473;BME280;44775;51.564;5.460;2023-06-19T11:44:35;101066.28;;;30.80;34.09
58473;BME280;44775;51.564;5.460;2023-06-19T11:47:01;101049.09;;;31.02;34.35
58473;BME280;44775;51.564;5.460;2023-06-19T11:49:34;101050.38;;;31.43;33.22
58473;BME280;44775;51.564;5.460;2023-06-19T11:52:00;101048.16;;;32.14;31.23
58473;BME280;44775;51.564;5.460;2023-06-19T11:54:25;101050.28;;;32.81;30.35
58473;BME280;44775;51.564;5.460;2023-06-19T11:56:50;101059.25;;;32.64;30.18
58473;BME280;44775;51.564;5.460;2023-06-19T11:59:16;101060.56;;;32.66;30.20
58473;BME280;44775;51.564;5.460;2023-06-19T12:01:41;101051.09;;;32.31;30.31
58473;BME280;44775;51.564;5.460;2023-06-19T12:04:06;101047.78;;;32.57;30.53
58473;BME280;44775;51.564;5.460;2023-06-19T12:06:32;101049.75;;;32.79;29.81
58473;BME280;44775;51.564;5.460;2023-06-19T12:08:57;101050.13;;;33.31;28.74
58473;BME280;44775;51.564;5.460;2023-06-19T12:11:23;101050.75;;;33.50;27.28
58473;BME280;44775;51.564;5.460;2023-06-19T12:13:49;101056.94;;;32.80;27.83
58473;BME280;44775;51.564;5.460;2023-06-19T12:16:15;101059.59;;;33.30;28.12
58473;BME280;44775;51.564;5.460;2023-06-19T12:18:40;101067.47;;;33.14;27.67
58473;BME280;44775;51.564;5.460;2023-06-19T12:21:06;101058.63;;;33.34;28.98
58473;BME280;44775;51.564;5.460;2023-06-19T12:23:32;101061.78;;;34.04;27.74
58473;BME280;44775;51.564;5.460;2023-06-19T12:25:57;101070.25;;;34.07;26.23
58473;BME280;44775;51.564;5.460;2023-06-19T12:28:22;101062.56;;;34.04;27.28
58473;BME280;44775;51.564;5.460;2023-06-19T12:30:48;101070.81;;;33.25;28.52
58473;BME280;44775;51.564;5.460;2023-06-19T12:33:19;101077.78;;;33.22;28.45
58473;BME280;44775;51.564;5.460;2023-06-19T12:35:48;101068.34;;;33.23;29.48
58473;BME280;44775;51.564;5.460;2023-06-19T12:38:14;101058.97;;;33.33;28.46
58473;BME280;44775;51.564;5.460;2023-06-19T12:40:40;101064.22;;;33.43;26.77
58473;BME280;44775;51.564;5.460;2023-06-19T12:43:05;101065.91;;;32.99;26.46
58473;BME280;44775;51.564;5.460;2023-06-19T12:45:31;101061.47;;;33.21;26.31
58473;BME280;44775;51.564;5.460;2023-06-19T12:47:57;101062.38;;;33.30;27.31
58473;BME280;44775;51.564;5.460;2023-06-19T12:50:22;101065.09;;;33.83;26.60